Darya Jyoti — VRGM9 — position and weather

sailwx.info

Track history (hours):
 
Tides and Currents Weather Stations Pressure Air Temp Water Temp Dewpoint Dewpoint Depression Visibility Wind Speed Wind Dir Waves Ship Positions

Darya Jyoti

Last reported at 2017-Sep-19 00:31 UTC. Time now 2017-Sep-24 03:25 UTC.
Position S 24°16' W 046°03'.

Length 229 m; draft 13.2 m.

Type: Cargo ship. MMSI: 477742700.

Date/timePositionNaut miles runAvg speedWind from/ knotsBaromVisibWave heightAir tempDewpointWater temp
2017-Sep-19 00:31S 24°16' W 046°03'111.9
2017-Sep-19 00:27S 24°16' W 046°04'512.0
2017-Sep-19 00:00S 24°15' W 046°10'612.1
2017-Sep-18 23:30S 24°15' W 046°16'611.2
2017-Sep-18 23:00S 24°12' W 046°21'5 9.3
2017-Sep-18 22:30S 24°07' W 046°22'3 6.3
2017-Sep-18 22:00S 24°04' W 046°22'3 7.0
2017-Sep-18 21:30S 24°01' W 046°20'3 6.8
2017-Sep-18 21:00S 23°58' W 046°17'0 0.6
2017-Sep-18 20:24S 23°58' W 046°17'0 0.0
2017-Sep-18 19:37S 23°58' W 046°17'0 0.0
2017-Sep-18 19:31S 23°58' W 046°17'0 0.0
2017-Sep-18 18:49S 23°58' W 046°17'0 0.0
2017-Sep-18 18:25S 23°58' W 046°17'0 0.0
2017-Sep-18 17:55S 23°58' W 046°17'0 0.0
2017-Sep-18 13:55S 23°58' W 046°17'0 0.0
2017-Sep-18 12:46S 23°58' W 046°17'0 0.0
2017-Sep-18 12:31S 23°58' W 046°17'0 0.0
2017-Sep-18 11:19S 23°58' W 046°17'0 0.0
2017-Sep-18 07:19S 23°58' W 046°17'0 0.0
2017-Sep-18 06:55S 23°58' W 046°17'0 0.0
2017-Sep-18 06:13S 23°58' W 046°17'0 0.0
2017-Sep-18 06:01S 23°58' W 046°17'0 0.0
2017-Sep-18 04:43S 23°58' W 046°17'0 0.0
2017-Sep-18 04:25S 23°58' W 046°17'0 0.0
2017-Sep-18 03:52S 23°58' W 046°17'0 0.0
2017-Sep-18 03:10S 23°58' W 046°17'0 0.0
2017-Sep-18 02:55S 23°58' W 046°17'0 0.0
2017-Sep-18 02:19S 23°58' W 046°17'0 0.0
2017-Sep-18 01:55S 23°58' W 046°17'0 0.0
2017-Sep-18 01:25S 23°58' W 046°17'0 0.0
2017-Sep-18 00:13S 23°58' W 046°17'0 0.0
2017-Sep-17 23:57S 23°58' W 046°17'1 2.6
2017-Sep-17 23:30S 23°59' W 046°17'4 8.1
2017-Sep-17 23:00S 24°02' W 046°21'4 7.3
2017-Sep-17 22:30S 24°05' W 046°22'3 6.6
2017-Sep-17 22:00S 24°08' W 046°21'3 6.1
2017-Sep-17 21:30S 24°11' W 046°19'3 5.3
2017-Sep-17 21:00S 24°11' W 046°16'0 0.2
2017-Sep-17 20:17S 24°11' W 046°16'0 0.3
2017-Sep-17 19:59S 24°11' W 046°16'0 0.2
2017-Sep-17 19:29S 24°11' W 046°16'0 0.1
2017-Sep-17 18:59S 24°11' W 046°16'0 0.1
2017-Sep-17 18:17S 24°11' W 046°16'0 0.2
2017-Sep-17 17:59S 24°11' W 046°16'0 0.1
2017-Sep-17 17:23S 24°11' W 046°16'0 0.2
2017-Sep-17 16:59S 24°11' W 046°16'0 0.1
2017-Sep-17 16:29S 24°11' W 046°16'0 0.2
2017-Sep-17 15:59S 24°11' W 046°16'0 0.2
2017-Sep-17 15:29S 24°11' W 046°16'0 0.1
2017-Sep-17 14:59S 24°11' W 046°16'0 0.0
2017-Sep-17 14:29S 24°11' W 046°16'0 0.1
2017-Sep-17 13:59S 24°11' W 046°16'0 0.1
2017-Sep-17 13:29S 24°11' W 046°16'0 0.0
2017-Sep-17 12:59S 24°11' W 046°16'0 0.0
2017-Sep-17 12:23S 24°11' W 046°16'0 0.0
2017-Sep-17 11:59S 24°11' W 046°16'0 0.1
2017-Sep-17 11:29S 24°11' W 046°16'0 0.0
2017-Sep-17 10:59S 24°11' W 046°16'0 0.0
2017-Sep-17 10:23S 24°11' W 046°16'0 0.0
2017-Sep-17 09:59S 24°11' W 046°16'0 0.0
2017-Sep-17 09:29S 24°11' W 046°16'0 0.0
2017-Sep-17 08:59S 24°11' W 046°16'0 0.0
2017-Sep-17 08:29S 24°11' W 046°16'0 0.0
2017-Sep-17 07:59S 24°11' W 046°16'0 0.0
2017-Sep-17 07:29S 24°11' W 046°16'0 0.0
2017-Sep-17 06:53S 24°11' W 046°16'0 0.0
2017-Sep-17 06:29S 24°11' W 046°16'0 0.0
2017-Sep-17 05:59S 24°11' W 046°16'0 0.0
2017-Sep-17 05:29S 24°11' W 046°16'0 0.0
2017-Sep-17 04:56S 24°11' W 046°16'0 0.0
2017-Sep-17 04:29S 24°11' W 046°16'0 0.0
2017-Sep-17 03:53S 24°11' W 046°16'0 0.1
2017-Sep-17 03:29S 24°11' W 046°16'0 0.1
2017-Sep-17 02:59S 24°11' W 046°16'0 0.1
2017-Sep-17 02:29S 24°11' W 046°16'0 0.3
2017-Sep-17 01:59S 24°11' W 046°16'0 0.3
2017-Sep-17 01:29S 24°11' W 046°16'0 0.0
2017-Sep-17 00:59S 24°11' W 046°16'0 0.1
2017-Sep-17 00:29S 24°11' W 046°16'0 0.1
2017-Sep-16 23:59S 24°11' W 046°16'0 0.0
2017-Sep-16 23:29S 24°11' W 046°16'0 0.0
2017-Sep-16 22:53S 24°11' W 046°16'0 0.1
2017-Sep-16 22:29S 24°11' W 046°16'0 0.0
2017-Sep-16 21:59S 24°11' W 046°16'0 0.0
2017-Sep-16 21:29S 24°11' W 046°16'0 0.0
2017-Sep-16 20:59S 24°11' W 046°16'0 0.0
2017-Sep-16 20:29S 24°11' W 046°16'0 0.0
2017-Sep-16 19:53S 24°11' W 046°16'0 0.1
2017-Sep-16 19:29S 24°11' W 046°16'0 0.0
2017-Sep-16 18:53S 24°11' W 046°16'0 0.0
2017-Sep-16 18:26S 24°11' W 046°16'0 0.1
2017-Sep-16 17:59S 24°11' W 046°16'0 0.1
2017-Sep-16 17:26S 24°11' W 046°16'0 0.2
2017-Sep-16 16:59S 24°11' W 046°16'0 0.1
2017-Sep-16 16:29S 24°11' W 046°16'0 0.1
2017-Sep-16 15:53S 24°11' W 046°16'0 0.1
2017-Sep-16 15:29S 24°11' W 046°16'0 0.1
2017-Sep-16 14:59S 24°11' W 046°16'0 0.1
2017-Sep-16 14:23S 24°11' W 046°16'0 0.1
2017-Sep-16 13:59S 24°11' W 046°16'0 0.0
2017-Sep-16 13:29S 24°11' W 046°16'0 0.0
2017-Sep-16 12:59S 24°11' W 046°16'0 0.0
2017-Sep-16 12:29S 24°11' W 046°16'0 0.0
2017-Sep-16 11:59S 24°11' W 046°16'0 0.0
2017-Sep-16 11:29S 24°11' W 046°16'0 0.0
2017-Sep-16 10:59S 24°11' W 046°16'0 0.0
2017-Sep-16 10:29S 24°11' W 046°16'0 0.0
2017-Sep-16 09:59S 24°11' W 046°16'0 0.0
2017-Sep-16 09:29S 24°11' W 046°16'0 0.0
2017-Sep-16 08:59S 24°11' W 046°16'0 0.0
2017-Sep-16 08:29S 24°11' W 046°16'0 0.0
2017-Sep-16 07:53S 24°11' W 046°16'0 0.0
2017-Sep-16 07:29S 24°11' W 046°16'0 0.0
2017-Sep-16 06:53S 24°11' W 046°16'0 0.1
2017-Sep-16 06:29S 24°11' W 046°16'0 0.0
2017-Sep-16 05:59S 24°11' W 046°16'0 0.0
2017-Sep-16 05:29S 24°11' W 046°16'0 0.0
2017-Sep-16 04:47S 24°11' W 046°16'0 0.0
2017-Sep-16 04:29S 24°11' W 046°16'0 0.0
2017-Sep-16 03:53S 24°11' W 046°16'0 0.0
2017-Sep-16 03:29S 24°11' W 046°16'0 0.0
2017-Sep-16 02:59S 24°11' W 046°16'0 0.0
2017-Sep-16 02:29S 24°11' W 046°16'0 0.0
2017-Sep-16 01:59S 24°11' W 046°16'0 0.0
2017-Sep-16 01:29S 24°11' W 046°16'0 0.0
2017-Sep-16 00:59S 24°11' W 046°16'0 0.0
2017-Sep-16 00:29S 24°11' W 046°16'0 0.0
2017-Sep-15 23:59S 24°11' W 046°16'0 0.0
2017-Sep-15 23:29S 24°11' W 046°16'0 0.0
2017-Sep-15 22:59S 24°11' W 046°16'0 0.0
2017-Sep-15 22:29S 24°11' W 046°16'0 0.0
2017-Sep-15 21:59S 24°11' W 046°16'0 0.1
2017-Sep-15 21:29S 24°11' W 046°16'1 1.7
2017-Sep-15 21:00S 24°11' W 046°17'3 6.6
2017-Sep-15 20:30S 24°09' W 046°20'4 8.4
2017-Sep-15 20:00S 24°05' W 046°22'4 9.0
2017-Sep-15 19:30S 24°01' W 046°21'4 7.5
2017-Sep-15 19:00S 23°59' W 046°17'2 0.0
2017-Sep-13 18:09S 23°57' W 046°19'1 8.1
2017-Sep-13 18:00S 23°58' W 046°18'3 5.8
2017-Sep-13 17:30S 23°60' W 046°20'3 6.5
2017-Sep-13 17:00S 24°03' W 046°21'4 7.6
2017-Sep-13 16:30S 24°07' W 046°23'4 7.7
2017-Sep-13 16:00S 24°10' W 046°21'3 6.8
2017-Sep-13 15:30S 24°12' W 046°18'1 2.2
2017-Sep-13 14:57S 24°12' W 046°16'0 0.1
2017-Sep-13 14:27S 24°12' W 046°16'0 0.2
2017-Sep-13 14:00S 24°12' W 046°16'0 0.2
2017-Sep-13 13:30S 24°12' W 046°16'0 0.3
2017-Sep-13 12:45S 24°12' W 046°16'0 0.3
2017-Sep-13 12:27S 24°12' W 046°16'0 0.1
2017-Sep-13 11:57S 24°12' W 046°16'0 0.0
2017-Sep-13 11:21S 24°12' W 046°16'0 0.1
2017-Sep-13 10:51S 24°12' W 046°16'0 0.1
2017-Sep-13 10:30S 24°12' W 046°16'0 0.0
2017-Sep-13 09:57S 24°12' W 046°16'0 0.0
2017-Sep-13 09:30S 24°12' W 046°16'0 0.0
2017-Sep-13 08:57S 24°12' W 046°16'0 0.0
2017-Sep-13 08:30S 24°12' W 046°16'0 0.3
2017-Sep-13 08:00S 24°12' W 046°16'0 0.1
2017-Sep-13 07:27S 24°12' W 046°16'0 0.0
2017-Sep-13 06:54S 24°12' W 046°16'0 0.1
2017-Sep-13 06:27S 24°12' W 046°16'0 0.0
2017-Sep-13 06:00S 24°12' W 046°16'0 0.1
2017-Sep-13 05:27S 24°12' W 046°16'0 0.0
2017-Sep-13 04:51S 24°12' W 046°16'0 0.1
2017-Sep-13 04:30S 24°12' W 046°16'0 0.0
2017-Sep-13 03:57S 24°12' W 046°16'0 0.0
2017-Sep-13 03:27S 24°12' W 046°16'0 0.0
2017-Sep-13 02:54S 24°12' W 046°16'0 0.1
2017-Sep-13 02:30S 24°12' W 046°16'0 0.1
2017-Sep-13 02:00S 24°12' W 046°16'0 0.1
2017-Sep-13 01:27S 24°12' W 046°16'0 0.0
2017-Sep-13 00:57S 24°12' W 046°16'0 0.0
2017-Sep-13 00:27S 24°12' W 046°16'0 0.0
2017-Sep-13 00:00S 24°12' W 046°16'0 0.0
2017-Sep-12 23:27S 24°12' W 046°16'0 0.0
2017-Sep-12 23:00S 24°12' W 046°16'0 0.0
2017-Sep-12 22:27S 24°12' W 046°16'0 0.0
2017-Sep-12 21:57S 24°12' W 046°16'0 0.0
2017-Sep-12 21:27S 24°12' W 046°16'0 0.0
2017-Sep-12 20:57S 24°12' W 046°16'0 0.0
2017-Sep-12 20:30S 24°12' W 046°16'0 0.0
2017-Sep-12 19:57S 24°12' W 046°16'0 0.0
2017-Sep-12 19:27S 24°12' W 046°16'0 0.0
2017-Sep-12 18:57S 24°12' W 046°16'0 0.0
2017-Sep-12 18:27S 24°12' W 046°16'0 0.0
2017-Sep-12 17:57S 24°12' W 046°16'0 0.0
2017-Sep-12 17:27S 24°12' W 046°16'0 0.0
2017-Sep-12 16:57S 24°12' W 046°16'0 0.0
2017-Sep-12 16:27S 24°12' W 046°16'0 0.0
2017-Sep-12 16:00S 24°12' W 046°16'0 0.0
2017-Sep-12 15:27S 24°12' W 046°16'0 0.0
2017-Sep-12 14:51S 24°12' W 046°16'0 0.0
2017-Sep-12 14:27S 24°12' W 046°16'0 0.0
2017-Sep-12 13:58S 24°12' W 046°16'0 0.0
2017-Sep-12 13:24S 24°12' W 046°16'0 0.0
2017-Sep-12 12:57S 24°12' W 046°16'0 0.0
2017-Sep-12 12:27S 24°12' W 046°16'0 0.1
2017-Sep-12 12:00S 24°12' W 046°16'0 0.2
2017-Sep-12 11:30S 24°12' W 046°16'0 0.1
2017-Sep-12 11:00S 24°12' W 046°16'0 0.0
2017-Sep-12 10:27S 24°12' W 046°16'0 0.0
2017-Sep-12 09:57S 24°12' W 046°16'0 0.0
2017-Sep-12 09:27S 24°12' W 046°16'0 0.0
2017-Sep-12 09:00S 24°12' W 046°16'0 0.1
2017-Sep-12 08:27S 24°12' W 046°16'0 0.1
2017-Sep-12 08:00S 24°12' W 046°16'0 0.0
2017-Sep-12 07:30S 24°12' W 046°16'0 0.0
2017-Sep-12 06:57S 24°12' W 046°16'0 0.0
2017-Sep-12 06:30S 24°12' W 046°16'0 0.0
2017-Sep-12 06:00S 24°12' W 046°16'0 0.0
2017-Sep-12 05:27S 24°12' W 046°16'0 0.0
2017-Sep-12 05:00S 24°12' W 046°16'0 0.0
2017-Sep-12 04:24S 24°12' W 046°16'0 0.0
2017-Sep-12 03:57S 24°12' W 046°16'0 0.0
2017-Sep-12 03:27S 24°12' W 046°16'0 0.0
2017-Sep-12 03:00S 24°12' W 046°16'0 0.0
2017-Sep-12 02:30S 24°12' W 046°16'0 0.0
2017-Sep-12 01:57S 24°12' W 046°16'0 0.0
2017-Sep-12 01:27S 24°12' W 046°16'0 0.0
2017-Sep-12 01:00S 24°12' W 046°16'0 0.0
2017-Sep-12 00:21S 24°12' W 046°16'0 0.0
2017-Sep-11 23:57S 24°12' W 046°16'0 0.0
2017-Sep-11 23:30S 24°12' W 046°16'0 0.0
2017-Sep-11 23:00S 24°12' W 046°16'0 0.0
2017-Sep-11 22:30S 24°12' W 046°16'0 0.0
2017-Sep-11 21:57S 24°12' W 046°16'0 0.0
2017-Sep-11 21:30S 24°12' W 046°16'0 0.0
2017-Sep-11 20:57S 24°12' W 046°16'0 0.0
2017-Sep-11 20:30S 24°12' W 046°16'0 0.0
2017-Sep-11 20:00S 24°12' W 046°16'0 0.0
2017-Sep-11 19:30S 24°12' W 046°16'0 0.1
2017-Sep-11 19:00S 24°12' W 046°16'0 0.0
2017-Sep-11 18:27S 24°12' W 046°16'0 0.0
2017-Sep-11 17:57S 24°12' W 046°16'0 0.0
2017-Sep-11 17:27S 24°12' W 046°16'0 0.0
2017-Sep-11 16:51S 24°12' W 046°16'0 0.0
2017-Sep-11 16:27S 24°12' W 046°16'0 0.0
2017-Sep-11 15:57S 24°12' W 046°16'0 0.0
2017-Sep-11 15:27S 24°12' W 046°16'0 0.0
2017-Sep-11 15:00S 24°12' W 046°16'0 0.0
2017-Sep-11 14:21S 24°12' W 046°16'0 0.0
2017-Sep-11 13:57S 24°12' W 046°16'0 0.0
2017-Sep-11 13:21S 24°12' W 046°16'0 0.0
2017-Sep-11 12:54S 24°12' W 046°16'0 0.0
2017-Sep-11 12:27S 24°12' W 046°16'0 0.0
2017-Sep-11 11:57S 24°12' W 046°16'0 0.0
2017-Sep-11 11:30S 24°12' W 046°16'0 0.0
2017-Sep-11 10:48S 24°12' W 046°16'0 0.0
2017-Sep-11 10:27S 24°12' W 046°16'0 0.0
2017-Sep-11 10:00S 24°12' W 046°16'0 0.0
2017-Sep-11 09:30S 24°12' W 046°16'0 0.0
2017-Sep-11 08:57S 24°12' W 046°16'0 0.0
2017-Sep-11 08:27S 24°12' W 046°16'0 0.0
2017-Sep-11 08:00S 24°12' W 046°16'0 0.0
2017-Sep-11 07:27S 24°12' W 046°16'0 0.0
2017-Sep-11 07:00S 24°12' W 046°16'0 0.0
2017-Sep-11 06:27S 24°12' W 046°16'0 0.0
2017-Sep-11 05:54S 24°12' W 046°16'0 0.0
2017-Sep-11 05:27S 24°12' W 046°16'0 0.0
2017-Sep-11 04:57S 24°12' W 046°16'0 0.0
2017-Sep-11 04:27S 24°12' W 046°16'0 0.0
2017-Sep-11 03:57S 24°12' W 046°16'0 0.0
2017-Sep-11 03:27S 24°12' W 046°16'0 0.0
2017-Sep-11 02:57S 24°12' W 046°16'0 0.0
2017-Sep-11 02:30S 24°12' W 046°16'0 0.0
2017-Sep-11 01:54S 24°12' W 046°16'0 0.0
2017-Sep-11 01:27S 24°12' W 046°16'0 0.0
2017-Sep-11 00:57S 24°12' W 046°16'0 0.0
2017-Sep-11 00:27S 24°12' W 046°16'0 0.0
2017-Sep-10 23:57S 24°12' W 046°16'0 0.0
2017-Sep-10 23:27S 24°12' W 046°16'0 0.0
2017-Sep-10 22:57S 24°12' W 046°16'0 0.0
2017-Sep-10 22:24S 24°12' W 046°16'0 0.0
2017-Sep-10 22:00S 24°12' W 046°16'0 0.0
2017-Sep-10 21:21S 24°12' W 046°16'0 0.0
2017-Sep-10 20:57S 24°12' W 046°16'0 0.0
2017-Sep-10 20:30S 24°12' W 046°16'0 0.0
2017-Sep-10 19:51S 24°12' W 046°16'0 0.0
2017-Sep-10 19:27S 24°12' W 046°16'0 0.0
2017-Sep-10 18:51S 24°12' W 046°16'0 0.1
2017-Sep-10 18:24S 24°12' W 046°16'0 0.0
2017-Sep-10 17:57S 24°12' W 046°16'0 0.0
2017-Sep-10 17:30S 24°12' W 046°16'0 0.0
2017-Sep-10 16:57S 24°12' W 046°16'0 0.0
2017-Sep-10 16:30S 24°12' W 046°16'0 0.0
2017-Sep-10 16:00S 24°12' W 046°16'0 0.0
2017-Sep-10 15:30S 24°12' W 046°16'0 0.1
2017-Sep-10 14:57S 24°12' W 046°16'0 0.0
2017-Sep-10 13:54S 24°12' W 046°16'0 0.0
2017-Sep-10 13:30S 24°12' W 046°16'0 0.1
2017-Sep-10 12:57S 24°12' W 046°16'0 0.0
2017-Sep-10 12:27S 24°12' W 046°16'0 0.1
2017-Sep-10 11:57S 24°12' W 046°16'0 0.0
2017-Sep-10 11:27S 24°12' W 046°16'0 0.0
2017-Sep-10 11:00S 24°12' W 046°16'0 0.0
2017-Sep-10 10:27S 24°12' W 046°16'0 0.0
2017-Sep-10 09:57S 24°12' W 046°16'0 0.0
2017-Sep-10 09:24S 24°12' W 046°16'0 0.1
2017-Sep-10 08:57S 24°12' W 046°16'0 0.1
2017-Sep-10 08:27S 24°12' W 046°16'0 0.0
2017-Sep-10 07:57S 24°12' W 046°16'0 0.1
2017-Sep-10 07:15S 24°12' W 046°16'0 0.0
2017-Sep-10 06:57S 24°12' W 046°16'0 0.0
2017-Sep-10 06:24S 24°12' W 046°16'0 0.0
2017-Sep-10 05:51S 24°12' W 046°16'0 0.0
2017-Sep-10 05:30S 24°12' W 046°16'0 0.0
2017-Sep-10 04:51S 24°12' W 046°16'0 0.1
2017-Sep-10 04:27S 24°12' W 046°16'0 0.0
2017-Sep-10 03:57S 24°12' W 046°16'0 0.0
2017-Sep-10 03:21S 24°12' W 046°16'0 0.0
2017-Sep-10 02:51S 24°12' W 046°16'0 0.0
2017-Sep-10 02:27S 24°12' W 046°16'0 0.0
2017-Sep-10 01:45S 24°12' W 046°16'0 0.0
2017-Sep-10 01:27S 24°12' W 046°16'0 0.0
2017-Sep-10 00:51S 24°12' W 046°16'0 0.0
2017-Sep-10 00:27S 24°12' W 046°16'0 0.1
2017-Sep-09 23:57S 24°12' W 046°16'0 0.0
2017-Sep-09 23:21S 24°12' W 046°16'0 0.0
2017-Sep-09 23:00S 24°12' W 046°16'0 0.1
2017-Sep-09 22:27S 24°12' W 046°16'0 0.1
2017-Sep-09 21:57S 24°12' W 046°16'0 0.0
2017-Sep-09 21:30S 24°12' W 046°16'0 0.0
2017-Sep-09 20:57S 24°12' W 046°16'0 0.0
2017-Sep-09 20:30S 24°12' W 046°16'0 0.0
2017-Sep-09 19:45S 24°12' W 046°16'0 0.0
2017-Sep-09 19:27S 24°12' W 046°16'0 0.0
2017-Sep-09 19:00S 24°12' W 046°16'0 0.0
2017-Sep-09 18:27S 24°12' W 046°16'0 0.0
2017-Sep-09 18:00S 24°12' W 046°16'0 0.0
2017-Sep-09 17:27S 24°12' W 046°16'0 0.0
2017-Sep-09 16:57S 24°12' W 046°16'0 0.0
2017-Sep-09 16:27S 24°12' W 046°16'0 0.0
2017-Sep-09 15:57S 24°12' W 046°16'0 0.0
2017-Sep-09 15:15S 24°12' W 046°16'0 0.1
2017-Sep-09 15:00S 24°12' W 046°16'0 0.0
2017-Sep-09 14:09S 24°12' W 046°16'0 0.1
2017-Sep-09 14:00S 24°12' W 046°16'0 0.1
2017-Sep-09 13:30S 24°12' W 046°16'0 0.0
2017-Sep-09 12:51S 24°12' W 046°16'0 0.1
2017-Sep-09 12:27S 24°12' W 046°16'0 0.1
2017-Sep-09 11:57S 24°12' W 046°16'0 0.2
2017-Sep-09 11:30S 24°12' W 046°16'0 0.1
2017-Sep-09 11:00S 24°12' W 046°16'0 0.1
2017-Sep-09 10:27S 24°12' W 046°16'0 0.1
2017-Sep-09 09:57S 24°12' W 046°16'0 0.1
2017-Sep-09 09:27S 24°12' W 046°16'0 0.0
2017-Sep-09 09:00S 24°12' W 046°16'0 0.1
2017-Sep-09 08:27S 24°12' W 046°16'0 0.1
2017-Sep-09 08:00S 24°12' W 046°16'2 4.4
2017-Sep-09 07:31S 24°14' W 046°18'4 7.0
2017-Sep-09 07:00S 24°17' W 046°18'510.9
2017-Sep-09 06:30S 24°21' W 046°14'5 9.7
2017-Sep-09 06:00S 24°23' W 046°09'1 2.7
2017-Sep-09 05:30S 24°23' W 046°08'612.0
2017-Sep-09 05:01S 24°24' W 046°01'714.5
2017-Sep-09 04:30S 24°25' W 045°53'714.8
2017-Sep-09 04:00S 24°27' W 045°45'815.1
2017-Sep-09 03:30S 24°28' W 045°37'1015.0
2017-Sep-09 02:49S 24°29' W 045°26'514.8
2017-Sep-09 02:30S 24°30' W 045°21'714.7
2017-Sep-09 02:00S 24°32' W 045°13'714.6
2017-Sep-09 01:31S 24°33' W 045°05'714.7
2017-Sep-09 01:00S 24°35' W 044°57'  
Track history (hours):
 
Tides and Currents Weather Stations Pressure Air Temp Water Temp Dewpoint Dewpoint Depression Visibility Wind Speed Wind Dir Waves Ship Positions

Darya Jyoti

Last reported at 2017-Sep-19 00:31 UTC. Time now 2017-Sep-24 03:25 UTC.
Position S 24°16' W 046°03'.

Length 229 m; draft 13.2 m.

Type: Cargo ship. MMSI: 477742700.

Date/timePositionNaut miles runAvg speedWind from/ knotsBaromVisibWave heightAir tempDewpointWater temp
2017-Sep-19 00:31S 24°16' W 046°03'111.9
2017-Sep-19 00:27S 24°16' W 046°04'512.0
2017-Sep-19 00:00S 24°15' W 046°10'612.1
2017-Sep-18 23:30S 24°15' W 046°16'611.2
2017-Sep-18 23:00S 24°12' W 046°21'5 9.3
2017-Sep-18 22:30S 24°07' W 046°22'3 6.3
2017-Sep-18 22:00S 24°04' W 046°22'3 7.0
2017-Sep-18 21:30S 24°01' W 046°20'3 6.8
2017-Sep-18 21:00S 23°58' W 046°17'0 0.6
2017-Sep-18 20:24S 23°58' W 046°17'0 0.0
2017-Sep-18 19:37S 23°58' W 046°17'0 0.0
2017-Sep-18 19:31S 23°58' W 046°17'0 0.0
2017-Sep-18 18:49S 23°58' W 046°17'0 0.0
2017-Sep-18 18:25S 23°58' W 046°17'0 0.0
2017-Sep-18 17:55S 23°58' W 046°17'0 0.0
2017-Sep-18 13:55S 23°58' W 046°17'0 0.0
2017-Sep-18 12:46S 23°58' W 046°17'0 0.0
2017-Sep-18 12:31S 23°58' W 046°17'0 0.0
2017-Sep-18 11:19S 23°58' W 046°17'0 0.0
2017-Sep-18 07:19S 23°58' W 046°17'0 0.0
2017-Sep-18 06:55S 23°58' W 046°17'0 0.0
2017-Sep-18 06:13S 23°58' W 046°17'0 0.0
2017-Sep-18 06:01S 23°58' W 046°17'0 0.0
2017-Sep-18 04:43S 23°58' W 046°17'0 0.0
2017-Sep-18 04:25S 23°58' W 046°17'0 0.0
2017-Sep-18 03:52S 23°58' W 046°17'0 0.0
2017-Sep-18 03:10S 23°58' W 046°17'0 0.0
2017-Sep-18 02:55S 23°58' W 046°17'0 0.0
2017-Sep-18 02:19S 23°58' W 046°17'0 0.0
2017-Sep-18 01:55S 23°58' W 046°17'0 0.0
2017-Sep-18 01:25S 23°58' W 046°17'0 0.0
2017-Sep-18 00:13S 23°58' W 046°17'0 0.0
2017-Sep-17 23:57S 23°58' W 046°17'1 2.6
2017-Sep-17 23:30S 23°59' W 046°17'4 8.1
2017-Sep-17 23:00S 24°02' W 046°21'4 7.3
2017-Sep-17 22:30S 24°05' W 046°22'3 6.6
2017-Sep-17 22:00S 24°08' W 046°21'3 6.1
2017-Sep-17 21:30S 24°11' W 046°19'3 5.3
2017-Sep-17 21:00S 24°11' W 046°16'0 0.2
2017-Sep-17 20:17S 24°11' W 046°16'0 0.3
2017-Sep-17 19:59S 24°11' W 046°16'0 0.2
2017-Sep-17 19:29S 24°11' W 046°16'0 0.1
2017-Sep-17 18:59S 24°11' W 046°16'0 0.1
2017-Sep-17 18:17S 24°11' W 046°16'0 0.2
2017-Sep-17 17:59S 24°11' W 046°16'0 0.1
2017-Sep-17 17:23S 24°11' W 046°16'0 0.2
2017-Sep-17 16:59S 24°11' W 046°16'0 0.1
2017-Sep-17 16:29S 24°11' W 046°16'0 0.2
2017-Sep-17 15:59S 24°11' W 046°16'0 0.2
2017-Sep-17 15:29S 24°11' W 046°16'0 0.1
2017-Sep-17 14:59S 24°11' W 046°16'0 0.0
2017-Sep-17 14:29S 24°11' W 046°16'0 0.1
2017-Sep-17 13:59S 24°11' W 046°16'0 0.1
2017-Sep-17 13:29S 24°11' W 046°16'0 0.0
2017-Sep-17 12:59S 24°11' W 046°16'0 0.0
2017-Sep-17 12:23S 24°11' W 046°16'0 0.0
2017-Sep-17 11:59S 24°11' W 046°16'0 0.1
2017-Sep-17 11:29S 24°11' W 046°16'0 0.0
2017-Sep-17 10:59S 24°11' W 046°16'0 0.0
2017-Sep-17 10:23S 24°11' W 046°16'0 0.0
2017-Sep-17 09:59S 24°11' W 046°16'0 0.0
2017-Sep-17 09:29S 24°11' W 046°16'0 0.0
2017-Sep-17 08:59S 24°11' W 046°16'0 0.0
2017-Sep-17 08:29S 24°11' W 046°16'0 0.0
2017-Sep-17 07:59S 24°11' W 046°16'0 0.0
2017-Sep-17 07:29S 24°11' W 046°16'0 0.0
2017-Sep-17 06:53S 24°11' W 046°16'0 0.0
2017-Sep-17 06:29S 24°11' W 046°16'0 0.0
2017-Sep-17 05:59S 24°11' W 046°16'0 0.0
2017-Sep-17 05:29S 24°11' W 046°16'0 0.0
2017-Sep-17 04:56S 24°11' W 046°16'0 0.0
2017-Sep-17 04:29S 24°11' W 046°16'0 0.0
2017-Sep-17 03:53S 24°11' W 046°16'0 0.1
2017-Sep-17 03:29S 24°11' W 046°16'0 0.1
2017-Sep-17 02:59S 24°11' W 046°16'0 0.1
2017-Sep-17 02:29S 24°11' W 046°16'0 0.3
2017-Sep-17 01:59S 24°11' W 046°16'0 0.3
2017-Sep-17 01:29S 24°11' W 046°16'0 0.0
2017-Sep-17 00:59S 24°11' W 046°16'0 0.1
2017-Sep-17 00:29S 24°11' W 046°16'0 0.1
2017-Sep-16 23:59S 24°11' W 046°16'0 0.0
2017-Sep-16 23:29S 24°11' W 046°16'0 0.0
2017-Sep-16 22:53S 24°11' W 046°16'0 0.1
2017-Sep-16 22:29S 24°11' W 046°16'0 0.0
2017-Sep-16 21:59S 24°11' W 046°16'0 0.0
2017-Sep-16 21:29S 24°11' W 046°16'0 0.0
2017-Sep-16 20:59S 24°11' W 046°16'0 0.0
2017-Sep-16 20:29S 24°11' W 046°16'0 0.0
2017-Sep-16 19:53S 24°11' W 046°16'0 0.1
2017-Sep-16 19:29S 24°11' W 046°16'0 0.0
2017-Sep-16 18:53S 24°11' W 046°16'0 0.0
2017-Sep-16 18:26S 24°11' W 046°16'0 0.1
2017-Sep-16 17:59S 24°11' W 046°16'0 0.1
2017-Sep-16 17:26S 24°11' W 046°16'0 0.2
2017-Sep-16 16:59S 24°11' W 046°16'0 0.1
2017-Sep-16 16:29S 24°11' W 046°16'0 0.1
2017-Sep-16 15:53S 24°11' W 046°16'0 0.1
2017-Sep-16 15:29S 24°11' W 046°16'0 0.1
2017-Sep-16 14:59S 24°11' W 046°16'0 0.1
2017-Sep-16 14:23S 24°11' W 046°16'0 0.1
2017-Sep-16 13:59S 24°11' W 046°16'0 0.0
2017-Sep-16 13:29S 24°11' W 046°16'0 0.0
2017-Sep-16 12:59S 24°11' W 046°16'0 0.0
2017-Sep-16 12:29S 24°11' W 046°16'0 0.0
2017-Sep-16 11:59S 24°11' W 046°16'0 0.0
2017-Sep-16 11:29S 24°11' W 046°16'0 0.0
2017-Sep-16 10:59S 24°11' W 046°16'0 0.0
2017-Sep-16 10:29S 24°11' W 046°16'0 0.0
2017-Sep-16 09:59S 24°11' W 046°16'0 0.0
2017-Sep-16 09:29S 24°11' W 046°16'0 0.0
2017-Sep-16 08:59S 24°11' W 046°16'0 0.0
2017-Sep-16 08:29S 24°11' W 046°16'0 0.0
2017-Sep-16 07:53S 24°11' W 046°16'0 0.0
2017-Sep-16 07:29S 24°11' W 046°16'0 0.0
2017-Sep-16 06:53S 24°11' W 046°16'0 0.1
2017-Sep-16 06:29S 24°11' W 046°16'0 0.0
2017-Sep-16 05:59S 24°11' W 046°16'0 0.0
2017-Sep-16 05:29S 24°11' W 046°16'0 0.0
2017-Sep-16 04:47S 24°11' W 046°16'0 0.0
2017-Sep-16 04:29S 24°11' W 046°16'0 0.0
2017-Sep-16 03:53S 24°11' W 046°16'0 0.0
2017-Sep-16 03:29S 24°11' W 046°16'0 0.0
2017-Sep-16 02:59S 24°11' W 046°16'0 0.0
2017-Sep-16 02:29S 24°11' W 046°16'0 0.0
2017-Sep-16 01:59S 24°11' W 046°16'0 0.0
2017-Sep-16 01:29S 24°11' W 046°16'0 0.0
2017-Sep-16 00:59S 24°11' W 046°16'0 0.0
2017-Sep-16 00:29S 24°11' W 046°16'0 0.0
2017-Sep-15 23:59S 24°11' W 046°16'0 0.0
2017-Sep-15 23:29S 24°11' W 046°16'0 0.0
2017-Sep-15 22:59S 24°11' W 046°16'0 0.0
2017-Sep-15 22:29S 24°11' W 046°16'0 0.0
2017-Sep-15 21:59S 24°11' W 046°16'0 0.1
2017-Sep-15 21:29S 24°11' W 046°16'1 1.7
2017-Sep-15 21:00S 24°11' W 046°17'3 6.6
2017-Sep-15 20:30S 24°09' W 046°20'4 8.4
2017-Sep-15 20:00S 24°05' W 046°22'4 9.0
2017-Sep-15 19:30S 24°01' W 046°21'4 7.5
2017-Sep-15 19:00S 23°59' W 046°17'2 0.0
2017-Sep-13 18:09S 23°57' W 046°19'1 8.1
2017-Sep-13 18:00S 23°58' W 046°18'3 5.8
2017-Sep-13 17:30S 23°60' W 046°20'3 6.5
2017-Sep-13 17:00S 24°03' W 046°21'4 7.6
2017-Sep-13 16:30S 24°07' W 046°23'4 7.7
2017-Sep-13 16:00S 24°10' W 046°21'3 6.8
2017-Sep-13 15:30S 24°12' W 046°18'1 2.2
2017-Sep-13 14:57S 24°12' W 046°16'0 0.1
2017-Sep-13 14:27S 24°12' W 046°16'0 0.2
2017-Sep-13 14:00S 24°12' W 046°16'0 0.2
2017-Sep-13 13:30S 24°12' W 046°16'0 0.3
2017-Sep-13 12:45S 24°12' W 046°16'0 0.3
2017-Sep-13 12:27S 24°12' W 046°16'0 0.1
2017-Sep-13 11:57S 24°12' W 046°16'0 0.0
2017-Sep-13 11:21S 24°12' W 046°16'0 0.1
2017-Sep-13 10:51S 24°12' W 046°16'0 0.1
2017-Sep-13 10:30S 24°12' W 046°16'0 0.0
2017-Sep-13 09:57S 24°12' W 046°16'0 0.0
2017-Sep-13 09:30S 24°12' W 046°16'0 0.0
2017-Sep-13 08:57S 24°12' W 046°16'0 0.0
2017-Sep-13 08:30S 24°12' W 046°16'0 0.3
2017-Sep-13 08:00S 24°12' W 046°16'0 0.1
2017-Sep-13 07:27S 24°12' W 046°16'0 0.0
2017-Sep-13 06:54S 24°12' W 046°16'0 0.1
2017-Sep-13 06:27S 24°12' W 046°16'0 0.0
2017-Sep-13 06:00S 24°12' W 046°16'0 0.1
2017-Sep-13 05:27S 24°12' W 046°16'0 0.0
2017-Sep-13 04:51S 24°12' W 046°16'0 0.1
2017-Sep-13 04:30S 24°12' W 046°16'0 0.0
2017-Sep-13 03:57S 24°12' W 046°16'0 0.0
2017-Sep-13 03:27S 24°12' W 046°16'0 0.0
2017-Sep-13 02:54S 24°12' W 046°16'0 0.1
2017-Sep-13 02:30S 24°12' W 046°16'0 0.1
2017-Sep-13 02:00S 24°12' W 046°16'0 0.1
2017-Sep-13 01:27S 24°12' W 046°16'0 0.0
2017-Sep-13 00:57S 24°12' W 046°16'0 0.0
2017-Sep-13 00:27S 24°12' W 046°16'0 0.0
2017-Sep-13 00:00S 24°12' W 046°16'0 0.0
2017-Sep-12 23:27S 24°12' W 046°16'0 0.0
2017-Sep-12 23:00S 24°12' W 046°16'0 0.0
2017-Sep-12 22:27S 24°12' W 046°16'0 0.0
2017-Sep-12 21:57S 24°12' W 046°16'0 0.0
2017-Sep-12 21:27S 24°12' W 046°16'0 0.0
2017-Sep-12 20:57S 24°12' W 046°16'0 0.0
2017-Sep-12 20:30S 24°12' W 046°16'0 0.0
2017-Sep-12 19:57S 24°12' W 046°16'0 0.0
2017-Sep-12 19:27S 24°12' W 046°16'0 0.0
2017-Sep-12 18:57S 24°12' W 046°16'0 0.0
2017-Sep-12 18:27S 24°12' W 046°16'0 0.0
2017-Sep-12 17:57S 24°12' W 046°16'0 0.0
2017-Sep-12 17:27S 24°12' W 046°16'0 0.0
2017-Sep-12 16:57S 24°12' W 046°16'0 0.0
2017-Sep-12 16:27S 24°12' W 046°16'0 0.0
2017-Sep-12 16:00S 24°12' W 046°16'0 0.0
2017-Sep-12 15:27S 24°12' W 046°16'0 0.0
2017-Sep-12 14:51S 24°12' W 046°16'0 0.0
2017-Sep-12 14:27S 24°12' W 046°16'0 0.0
2017-Sep-12 13:58S 24°12' W 046°16'0 0.0
2017-Sep-12 13:24S 24°12' W 046°16'0 0.0
2017-Sep-12 12:57S 24°12' W 046°16'0 0.0
2017-Sep-12 12:27S 24°12' W 046°16'0 0.1
2017-Sep-12 12:00S 24°12' W 046°16'0 0.2
2017-Sep-12 11:30S 24°12' W 046°16'0 0.1
2017-Sep-12 11:00S 24°12' W 046°16'0 0.0
2017-Sep-12 10:27S 24°12' W 046°16'0 0.0
2017-Sep-12 09:57S 24°12' W 046°16'0 0.0
2017-Sep-12 09:27S 24°12' W 046°16'0 0.0
2017-Sep-12 09:00S 24°12' W 046°16'0 0.1
2017-Sep-12 08:27S 24°12' W 046°16'0 0.1
2017-Sep-12 08:00S 24°12' W 046°16'0 0.0
2017-Sep-12 07:30S 24°12' W 046°16'0 0.0
2017-Sep-12 06:57S 24°12' W 046°16'0 0.0
2017-Sep-12 06:30S 24°12' W 046°16'0 0.0
2017-Sep-12 06:00S 24°12' W 046°16'0 0.0
2017-Sep-12 05:27S 24°12' W 046°16'0 0.0
2017-Sep-12 05:00S 24°12' W 046°16'0 0.0
2017-Sep-12 04:24S 24°12' W 046°16'0 0.0
2017-Sep-12 03:57S 24°12' W 046°16'0 0.0
2017-Sep-12 03:27S 24°12' W 046°16'0 0.0
2017-Sep-12 03:00S 24°12' W 046°16'0 0.0
2017-Sep-12 02:30S 24°12' W 046°16'0 0.0
2017-Sep-12 01:57S 24°12' W 046°16'0 0.0
2017-Sep-12 01:27S 24°12' W 046°16'0 0.0
2017-Sep-12 01:00S 24°12' W 046°16'0 0.0
2017-Sep-12 00:21S 24°12' W 046°16'0 0.0
2017-Sep-11 23:57S 24°12' W 046°16'0 0.0
2017-Sep-11 23:30S 24°12' W 046°16'0 0.0
2017-Sep-11 23:00S 24°12' W 046°16'0 0.0
2017-Sep-11 22:30S 24°12' W 046°16'0 0.0
2017-Sep-11 21:57S 24°12' W 046°16'0 0.0
2017-Sep-11 21:30S 24°12' W 046°16'0 0.0
2017-Sep-11 20:57S 24°12' W 046°16'0 0.0
2017-Sep-11 20:30S 24°12' W 046°16'0 0.0
2017-Sep-11 20:00S 24°12' W 046°16'0 0.0
2017-Sep-11 19:30S 24°12' W 046°16'0 0.1
2017-Sep-11 19:00S 24°12' W 046°16'0 0.0
2017-Sep-11 18:27S 24°12' W 046°16'0 0.0
2017-Sep-11 17:57S 24°12' W 046°16'0 0.0
2017-Sep-11 17:27S 24°12' W 046°16'0 0.0
2017-Sep-11 16:51S 24°12' W 046°16'0 0.0
2017-Sep-11 16:27S 24°12' W 046°16'0 0.0
2017-Sep-11 15:57S 24°12' W 046°16'0 0.0
2017-Sep-11 15:27S 24°12' W 046°16'0 0.0
2017-Sep-11 15:00S 24°12' W 046°16'0 0.0
2017-Sep-11 14:21S 24°12' W 046°16'0 0.0
2017-Sep-11 13:57S 24°12' W 046°16'0 0.0
2017-Sep-11 13:21S 24°12' W 046°16'0 0.0
2017-Sep-11 12:54S 24°12' W 046°16'0 0.0
2017-Sep-11 12:27S 24°12' W 046°16'0 0.0
2017-Sep-11 11:57S 24°12' W 046°16'0 0.0
2017-Sep-11 11:30S 24°12' W 046°16'0 0.0
2017-Sep-11 10:48S 24°12' W 046°16'0 0.0
2017-Sep-11 10:27S 24°12' W 046°16'0 0.0
2017-Sep-11 10:00S 24°12' W 046°16'0 0.0
2017-Sep-11 09:30S 24°12' W 046°16'0 0.0
2017-Sep-11 08:57S 24°12' W 046°16'0 0.0
2017-Sep-11 08:27S 24°12' W 046°16'0 0.0
2017-Sep-11 08:00S 24°12' W 046°16'0 0.0
2017-Sep-11 07:27S 24°12' W 046°16'0 0.0
2017-Sep-11 07:00S 24°12' W 046°16'0 0.0
2017-Sep-11 06:27S 24°12' W 046°16'0 0.0
2017-Sep-11 05:54S 24°12' W 046°16'0 0.0
2017-Sep-11 05:27S 24°12' W 046°16'0 0.0
2017-Sep-11 04:57S 24°12' W 046°16'0 0.0
2017-Sep-11 04:27S 24°12' W 046°16'0 0.0
2017-Sep-11 03:57S 24°12' W 046°16'0 0.0
2017-Sep-11 03:27S 24°12' W 046°16'0 0.0
2017-Sep-11 02:57S 24°12' W 046°16'0 0.0
2017-Sep-11 02:30S 24°12' W 046°16'0 0.0
2017-Sep-11 01:54S 24°12' W 046°16'0 0.0
2017-Sep-11 01:27S 24°12' W 046°16'0 0.0
2017-Sep-11 00:57S 24°12' W 046°16'0 0.0
2017-Sep-11 00:27S 24°12' W 046°16'0 0.0
2017-Sep-10 23:57S 24°12' W 046°16'0 0.0
2017-Sep-10 23:27S 24°12' W 046°16'0 0.0
2017-Sep-10 22:57S 24°12' W 046°16'0 0.0
2017-Sep-10 22:24S 24°12' W 046°16'0 0.0
2017-Sep-10 22:00S 24°12' W 046°16'0 0.0
2017-Sep-10 21:21S 24°12' W 046°16'0 0.0
2017-Sep-10 20:57S 24°12' W 046°16'0 0.0
2017-Sep-10 20:30S 24°12' W 046°16'0 0.0
2017-Sep-10 19:51S 24°12' W 046°16'0 0.0
2017-Sep-10 19:27S 24°12' W 046°16'0 0.0
2017-Sep-10 18:51S 24°12' W 046°16'0 0.1
2017-Sep-10 18:24S 24°12' W 046°16'0 0.0
2017-Sep-10 17:57S 24°12' W 046°16'0 0.0
2017-Sep-10 17:30S 24°12' W 046°16'0 0.0
2017-Sep-10 16:57S 24°12' W 046°16'0 0.0
2017-Sep-10 16:30S 24°12' W 046°16'0 0.0
2017-Sep-10 16:00S 24°12' W 046°16'0 0.0
2017-Sep-10 15:30S 24°12' W 046°16'0 0.1
2017-Sep-10 14:57S 24°12' W 046°16'0 0.0
2017-Sep-10 13:54S 24°12' W 046°16'0 0.0
2017-Sep-10 13:30S 24°12' W 046°16'0 0.1
2017-Sep-10 12:57S 24°12' W 046°16'0 0.0
2017-Sep-10 12:27S 24°12' W 046°16'0 0.1
2017-Sep-10 11:57S 24°12' W 046°16'0 0.0
2017-Sep-10 11:27S 24°12' W 046°16'0 0.0
2017-Sep-10 11:00S 24°12' W 046°16'0 0.0
2017-Sep-10 10:27S 24°12' W 046°16'0 0.0
2017-Sep-10 09:57S 24°12' W 046°16'0 0.0
2017-Sep-10 09:24S 24°12' W 046°16'0 0.1
2017-Sep-10 08:57S 24°12' W 046°16'0 0.1
2017-Sep-10 08:27S 24°12' W 046°16'0 0.0
2017-Sep-10 07:57S 24°12' W 046°16'0 0.1
2017-Sep-10 07:15S 24°12' W 046°16'0 0.0
2017-Sep-10 06:57S 24°12' W 046°16'0 0.0
2017-Sep-10 06:24S 24°12' W 046°16'0 0.0
2017-Sep-10 05:51S 24°12' W 046°16'0 0.0
2017-Sep-10 05:30S 24°12' W 046°16'0 0.0
2017-Sep-10 04:51S 24°12' W 046°16'0 0.1
2017-Sep-10 04:27S 24°12' W 046°16'0 0.0
2017-Sep-10 03:57S 24°12' W 046°16'0 0.0
2017-Sep-10 03:21S 24°12' W 046°16'0 0.0
2017-Sep-10 02:51S 24°12' W 046°16'0 0.0
2017-Sep-10 02:27S 24°12' W 046°16'0 0.0
2017-Sep-10 01:45S 24°12' W 046°16'0 0.0
2017-Sep-10 01:27S 24°12' W 046°16'0 0.0
2017-Sep-10 00:51S 24°12' W 046°16'0 0.0
2017-Sep-10 00:27S 24°12' W 046°16'0 0.1
2017-Sep-09 23:57S 24°12' W 046°16'0 0.0
2017-Sep-09 23:21S 24°12' W 046°16'0 0.0
2017-Sep-09 23:00S 24°12' W 046°16'0 0.1
2017-Sep-09 22:27S 24°12' W 046°16'0 0.1
2017-Sep-09 21:57S 24°12' W 046°16'0 0.0
2017-Sep-09 21:30S 24°12' W 046°16'0 0.0
2017-Sep-09 20:57S 24°12' W 046°16'0 0.0
2017-Sep-09 20:30S 24°12' W 046°16'0 0.0
2017-Sep-09 19:45S 24°12' W 046°16'0 0.0
2017-Sep-09 19:27S 24°12' W 046°16'0 0.0
2017-Sep-09 19:00S 24°12' W 046°16'0 0.0
2017-Sep-09 18:27S 24°12' W 046°16'0 0.0
2017-Sep-09 18:00S 24°12' W 046°16'0 0.0
2017-Sep-09 17:27S 24°12' W 046°16'0 0.0
2017-Sep-09 16:57S 24°12' W 046°16'0 0.0
2017-Sep-09 16:27S 24°12' W 046°16'0 0.0
2017-Sep-09 15:57S 24°12' W 046°16'0 0.0
2017-Sep-09 15:15S 24°12' W 046°16'0 0.1
2017-Sep-09 15:00S 24°12' W 046°16'0 0.0
2017-Sep-09 14:09S 24°12' W 046°16'0 0.1
2017-Sep-09 14:00S 24°12' W 046°16'0 0.1
2017-Sep-09 13:30S 24°12' W 046°16'0 0.0
2017-Sep-09 12:51S 24°12' W 046°16'0 0.1
2017-Sep-09 12:27S 24°12' W 046°16'0 0.1
2017-Sep-09 11:57S 24°12' W 046°16'0 0.2
2017-Sep-09 11:30S 24°12' W 046°16'0 0.1
2017-Sep-09 11:00S 24°12' W 046°16'0 0.1
2017-Sep-09 10:27S 24°12' W 046°16'0 0.1
2017-Sep-09 09:57S 24°12' W 046°16'0 0.1
2017-Sep-09 09:27S 24°12' W 046°16'0 0.0
2017-Sep-09 09:00S 24°12' W 046°16'0 0.1
2017-Sep-09 08:27S 24°12' W 046°16'0 0.1
2017-Sep-09 08:00S 24°12' W 046°16'2 4.4
2017-Sep-09 07:31S 24°14' W 046°18'4 7.0
2017-Sep-09 07:00S 24°17' W 046°18'510.9
2017-Sep-09 06:30S 24°21' W 046°14'5 9.7
2017-Sep-09 06:00S 24°23' W 046°09'1 2.7
2017-Sep-09 05:30S 24°23' W 046°08'612.0
2017-Sep-09 05:01S 24°24' W 046°01'714.5
2017-Sep-09 04:30S 24°25' W 045°53'714.8
2017-Sep-09 04:00S 24°27' W 045°45'815.1
2017-Sep-09 03:30S 24°28' W 045°37'1015.0
2017-Sep-09 02:49S 24°29' W 045°26'514.8
2017-Sep-09 02:30S 24°30' W 045°21'714.7
2017-Sep-09 02:00S 24°32' W 045°13'714.6
2017-Sep-09 01:31S 24°33' W 045°05'714.7
2017-Sep-09 01:00S 24°35' W 044°57'  

Dump ship's entire track history